Time;durP1;ratioP1;P1;durP2;ratioP2;P2;SDS_P1;SDS_P2;PMS_P1;PMS_P2;Temp;Humidity;BMP_temperature;BMP_pressure;BME280_temperature;BME280_humidity;BME280_pressure;Samples;Min_cycle;Max_cycle;Signal;HPM_P1;HPM_P2
2021/05/19 00:00:33;;;;;;;;;;;;;;;;;;5056059;28;19908;-66
2021/05/19 00:02:58;;;;;;;;;;;;;;;;;;5056188;28;19919;-66
2021/05/19 00:05:29;;;;;;;;;;;;;;;;;;5056069;28;20257;-66
2021/05/19 00:07:55;;;;;;;;;;;;;;;;;;5056110;28;19909;-66
2021/05/19 00:10:20;;;;;;;;;;;;;;;;;;5055804;28;19905;-66
2021/05/19 00:12:51;;;;;;;;;;;;;;;;;;5056124;28;19915;-66
2021/05/19 00:15:17;;;;;;;;;;;;;;;;;;5054944;28;20376;-66
2021/05/19 00:17:42;;;;;;;;;;;;;;;;;;5055915;28;19931;-66
2021/05/19 00:20:13;;;;;;;;;;;;;;;;;;5055847;28;20309;-66
2021/05/19 00:22:39;;;;;;;;;;;;;;;;;;5055563;28;19947;-66
2021/05/19 00:25:04;;;;;;;;;;;;;;;;;;5055657;28;20361;-66
2021/05/19 00:27:35;;;;;;;;;;;;;;;;;;5055727;28;19905;-66
2021/05/19 00:30:02;;;;;;;;;;;;;;;;;;5055592;28;19908;-66
2021/05/19 00:32:27;;;;;;;;;;;;;;;;;;5055419;28;19916;-66
2021/05/19 00:34:59;;;;;;;;;;;;;;;;;;5055583;28;20243;-66
2021/05/19 00:37:24;;;;;;;;;;;;;;;;;;5055462;28;20308;-66
2021/05/19 00:39:49;;;;;;;;;;;;;;;;;;5055432;28;19909;-66
2021/05/19 00:42:20;;;;;;;;;;;;;;;;;;5054082;28;19920;-66
2021/05/19 00:44:46;;;;;;;;;;;;;;;;;;5055459;28;19912;-66
2021/05/19 00:47:11;;;;;;;;;;;;;;;;;;5055396;28;20277;-66
2021/05/19 00:49:42;;;;;;;;;;;;;;;;;;5054952;28;19905;-66
2021/05/19 00:52:08;;;;;;;;;;;;;;;;;;5055262;28;19920;-66
2021/05/19 00:54:33;;;;;;;;;;;;;;;;;;5054846;28;19947;-67
2021/05/19 00:57:04;;;;;;;;;;;;;;;;;;5055271;28;19991;-64
2021/05/19 00:59:30;;;;;;;;;;;;;;;;;;5054863;28;20372;-66
2021/05/19 01:01:55;;;;;;;;;;;;;;;;;;5050955;28;19905;-66
2021/05/19 01:04:26;;;;;;;;;;;;;;;;;;5054249;28;19940;-66
2021/05/19 01:06:59;;;;;;;;;;;;;;;;;;5054552;28;19913;-66
2021/05/19 01:09:36;;;;;;;;;;;;;;;;;;5054390;28;20384;-66
2021/05/19 01:12:07;;;;;;;;;;;;;;;;;;5055023;28;19927;-66
2021/05/19 01:14:33;;;;;;;;;;;;;;;;;;5054827;28;19908;-64
2021/05/19 01:16:58;;;;;;;;;;;;;;;;;;5053492;28;19955;-63
2021/05/19 01:19:29;;;;;;;;;;;;;;;;;;5054729;28;19911;-66
2021/05/19 01:21:55;;;;;;;;;;;;;;;;;;5054384;28;20436;-66
2021/05/19 01:24:20;;;;;;;;;;;;;;;;;;5054582;28;19944;-66
2021/05/19 01:26:51;;;;;;;;;;;;;;;;;;5054228;28;19995;-66
2021/05/19 01:29:17;;;;;;;;;;;;;;;;;;5054195;28;19952;-66
2021/05/19 01:31:42;;;;;;;;;;;;;;;;;;5054340;28;19951;-66
2021/05/19 01:34:13;;;;;;;;;;;;;;;;;;5054514;28;19904;-66
2021/05/19 01:36:39;;;;;;;;;;;;;;;;;;5054277;28;19940;-66
2021/05/19 01:39:04;;;;;;;;;;;;;;;;;;5054421;28;19952;-66
2021/05/19 01:41:35;;;;;;;;;;;;;;;;;;5052909;28;19915;-66
2021/05/19 01:44:01;;;;;;;;;;;;;;;;;;5053017;28;19912;-66
2021/05/19 01:46:26;;;;;;;;;;;;;;;;;;5054066;28;20349;-66
2021/05/19 01:48:58;;;;;;;;;;;;;;;;;;5053964;28;19904;-66
2021/05/19 01:51:23;;;;;;;;;;;;;;;;;;5053813;28;19923;-67
2021/05/19 01:53:48;;;;;;;;;;;;;;;;;;5054174;28;19905;-66
2021/05/19 01:56:19;;;;;;;;;;;;;;;;;;5053991;28;19958;-66
2021/05/19 01:58:45;;;;;;;;;;;;;;;;;;5053824;28;20372;-66
2021/05/19 02:01:10;;;;;;;;;;;;;;;;;;5053908;28;19920;-66
2021/05/19 02:03:41;;;;;;;;;;;;;;;;;;5053781;28;19970;-66
2021/05/19 02:06:07;;;;;;;;;;;;;;;;;;5053865;28;19912;-66
2021/05/19 02:08:32;;;;;;;;;;;;;;;;;;5053796;28;20254;-66
2021/05/19 02:11:04;;;;;;;;;;;;;;;;;;5053781;28;19912;-66
2021/05/19 02:13:29;;;;;;;;;;;;;;;;;;5053772;28;20319;-66
2021/05/19 02:15:54;;;;;;;;;;;;;;;;;;5053370;28;19904;-66
2021/05/19 02:18:26;;;;;;;;;;;;;;;;;;5053716;28;19905;-66
2021/05/19 02:20:51;;;;;;;;;;;;;;;;;;5053580;28;19936;-66
2021/05/19 02:23:16;;;;;;;;;;;;;;;;;;5053655;28;19982;-66
2021/05/19 02:25:48;;;;;;;;;;;;;;;;;;5053505;28;19911;-66
2021/05/19 02:28:13;;;;;;;;;;;;;;;;;;5053545;28;19999;-66
2021/05/19 02:30:38;;;;;;;;;;;;;;;;;;5053315;28;20323;-66
2021/05/19 02:33:09;;;;;;;;;;;;;;;;;;5053550;28;20384;-66
2021/05/19 02:35:35;;;;;;;;;;;;;;;;;;5053356;28;19912;-66
2021/05/19 02:38:00;;;;;;;;;;;;;;;;;;5053466;28;20359;-66
2021/05/19 02:40:32;;;;;;;;;;;;;;;;;;5053095;28;19904;-66
2021/05/19 02:42:57;;;;;;;;;;;;;;;;;;5052428;28;19943;-66
2021/05/19 02:45:22;;;;;;;;;;;;;;;;;;5053343;28;20333;-66
2021/05/19 02:47:53;;;;;;;;;;;;;;;;;;5053555;28;19947;-66
2021/05/19 02:50:19;;;;;;;;;;;;;;;;;;5053212;28;19905;-66
2021/05/19 02:52:44;;;;;;;;;;;;;;;;;;5053280;28;20007;-66
2021/05/19 02:55:15;;;;;;;;;;;;;;;;;;5053345;28;19905;-66
2021/05/19 02:57:41;;;;;;;;;;;;;;;;;;5053300;28;19951;-66
2021/05/19 03:00:06;;;;;;;;;;;;;;;;;;5051909;28;20334;-66
2021/05/19 03:02:37;;;;;;;;;;;;;;;;;;5053323;28;19909;-66
2021/05/19 03:05:03;;;;;;;;;;;;;;;;;;5053153;28;19940;-66
2021/05/19 03:07:28;;;;;;;;;;;;;;;;;;5052900;28;19905;-66
2021/05/19 03:10:00;;;;;;;;;;;;;;;;;;5053318;28;19905;-66
2021/05/19 03:12:25;;;;;;;;;;;;;;;;;;5053063;28;19916;-66
2021/05/19 03:14:50;;;;;;;;;;;;;;;;;;5053191;28;19905;-66
2021/05/19 03:17:22;;;;;;;;;;;;;;;;;;5053083;28;19995;-66
2021/05/19 03:19:47;;;;;;;;;;;;;;;;;;5053030;28;19909;-63
2021/05/19 03:22:13;;;;;;;;;;;;;;;;;;5052993;28;19930;-66
2021/05/19 03:24:45;;;;;;;;;;;;;;;;;;5053074;28;19904;-66
2021/05/19 03:27:10;;;;;;;;;;;;;;;;;;5052880;28;19908;-66
2021/05/19 03:29:35;;;;;;;;;;;;;;;;;;5053025;28;20004;-66
2021/05/19 03:32:07;;;;;;;;;;;;;;;;;;5052870;28;20280;-66
2021/05/19 03:34:32;;;;;;;;;;;;;;;;;;5052924;28;19939;-66
2021/05/19 03:36:57;;;;;;;;;;;;;;;;;;5052822;28;19905;-66
2021/05/19 03:39:29;;;;;;;;;;;;;;;;;;5052927;28;19912;-66
2021/05/19 03:41:54;;;;;;;;;;;;;;;;;;5051400;28;19916;-66
2021/05/19 03:44:19;;;;;;;;;;;;;;;;;;5052857;28;19947;-66
2021/05/19 03:46:53;;;;;;;;;;;;;;;;;;5052772;28;20416;-66
2021/05/19 03:49:18;;;;;;;;;;;;;;;;;;5052821;28;19916;-66
2021/05/19 03:51:43;;;;;;;;;;;;;;;;;;5054873;28;19913;-65
2021/05/19 03:54:14;;;;;;;;;;;;;;;;;;5055799;28;19905;-66
2021/05/19 03:56:40;;;;;;;;;;;;;;;;;;5055897;28;20361;-66
2021/05/19 03:59:05;;;;;;;;;;;;;;;;;;5056310;28;19904;-66
2021/05/19 04:01:36;;;;;;;;;;;;;;;;;;5055865;28;19905;-66
2021/05/19 04:04:02;;;;;;;;;;;;;;;;;;5056309;28;19908;-66
2021/05/19 04:06:27;;;;;;;;;;;;;;;;;;5056029;28;19901;-66
2021/05/19 04:08:59;;;;;;;;;;;;;;;;;;5056015;28;19909;-67
2021/05/19 04:11:24;;;;;;;;;;;;;;;;;;5055540;28;20373;-66
2021/05/19 04:13:49;;;;;;;;;;;;;;;;;;5055725;28;19931;-66
2021/05/19 04:16:21;;;;;;;;;;;;;;;;;;5055911;28;19911;-66
2021/05/19 04:18:46;;;;;;;;;;;;;;;;;;5055931;28;19912;-66
2021/05/19 04:21:11;;;;;;;;;;;;;;;;;;5055766;28;19927;-66
2021/05/19 04:23:43;;;;;;;;;;;;;;;;;;5055900;28;19991;-66
2021/05/19 04:26:08;;;;;;;;;;;;;;;;;;5055631;28;19912;-66
2021/05/19 04:28:33;;;;;;;;;;;;;;;;;;5055656;28;19905;-66
2021/05/19 04:31:06;;;;;;;;;;;;;;;;;;5055550;28;19912;-66
2021/05/19 04:33:31;;;;;;;;;;;;;;;;;;5055625;28;20365;-66
2021/05/19 04:35:56;;;;;;;;;;;;;;;;;;5055592;28;19905;-66
2021/05/19 04:38:28;;;;;;;;;;;;;;;;;;5055652;28;20253;-66
2021/05/19 04:40:53;;;;;;;;;;;;;;;;;;5055283;28;20011;-66
2021/05/19 04:43:25;;;;;;;;;;;;;;;;;;5053979;28;19925;-66
2021/05/19 04:45:57;;;;;;;;;;;;;;;;;;5055264;28;20330;-66
2021/05/19 04:48:22;;;;;;;;;;;;;;;;;;5055396;28;20292;-66
2021/05/19 04:50:47;;;;;;;;;;;;;;;;;;5055065;28;19931;-66
2021/05/19 04:53:18;;;;;;;;;;;;;;;;;;5055423;28;19999;-66
2021/05/19 04:55:44;;;;;;;;;;;;;;;;;;5055065;28;19913;-66
2021/05/19 04:58:09;;;;;;;;;;;;;;;;;;5054921;28;19904;-66
2021/05/19 05:00:41;;;;;;;;;;;;;;;;;;5054738;28;19905;-66
2021/05/19 05:03:06;;;;;;;;;;;;;;;;;;5054794;28;20360;-66
2021/05/19 05:05:31;;;;;;;;;;;;;;;;;;5054662;28;19942;-66
2021/05/19 05:08:03;;;;;;;;;;;;;;;;;;5055122;28;19962;-66
2021/05/19 05:10:28;;;;;;;;;;;;;;;;;;5054790;28;19948;-66
2021/05/19 05:12:53;;;;;;;;;;;;;;;;;;5054899;28;19947;-66
2021/05/19 05:15:25;;;;;;;;;;;;;;;;;;5054773;28;19952;-66
2021/05/19 05:17:50;;;;;;;;;;;;;;;;;;5054826;28;19909;-66
2021/05/19 05:20:15;;;;;;;;;;;;;;;;;;5054595;28;19904;-66
2021/05/19 05:22:48;;;;;;;;;;;;;;;;;;5054800;28;19934;-66
2021/05/19 05:25:13;;;;;;;;;;;;;;;;;;5054662;28;19956;-64
2021/05/19 05:27:38;;;;;;;;;;;;;;;;;;5054506;28;19912;-64
2021/05/19 05:30:11;;;;;;;;;;;;;;;;;;5054687;28;19943;-64
2021/05/19 05:32:36;;;;;;;;;;;;;;;;;;5054326;28;19942;-64
2021/05/19 05:35:01;;;;;;;;;;;;;;;;;;5054501;28;19986;-64
2021/05/19 05:37:33;;;;;;;;;;;;;;;;;;5054416;28;19943;-64
2021/05/19 05:39:58;;;;;;;;;;;;;;;;;;5054344;28;19909;-64
2021/05/19 05:42:23;;;;;;;;;;;;;;;;;;5052752;28;19954;-64
2021/05/19 05:44:55;;;;;;;;;;;;;;;;;;5054251;28;20361;-65
2021/05/19 05:47:20;;;;;;;;;;;;;;;;;;5053859;28;20373;-65
2021/05/19 05:49:45;;;;;;;;;;;;;;;;;;5054134;28;19904;-65
2021/05/19 05:52:17;;;;;;;;;;;;;;;;;;5054075;28;19913;-64
2021/05/19 05:54:42;;;;;;;;;;;;;;;;;;5054160;28;20285;-65
2021/05/19 05:57:07;;;;;;;;;;;;;;;;;;5053988;28;19911;-65
2021/05/19 05:59:39;;;;;;;;;;;;;;;;;;5054119;28;19912;-65
2021/05/19 06:02:04;;;;;;;;;;;;;;;;;;5053956;28;19909;-64
2021/05/19 06:04:30;;;;;;;;;;;;;;;;;;5053563;28;19916;-64
2021/05/19 06:07:02;;;;;;;;;;;;;;;;;;5053890;28;19904;-65
2021/05/19 06:09:27;;;;;;;;;;;;;;;;;;5053819;28;19908;-65
2021/05/19 06:11:52;;;;;;;;;;;;;;;;;;5053247;28;19913;-65
2021/05/19 06:14:25;;;;;;;;;;;;;;;;;;5053437;28;19905;-65
2021/05/19 06:16:50;;;;;;;;;;;;;;;;;;5053602;28;19913;-64
2021/05/19 06:19:16;;;;;;;;;;;;;;;;;;5053738;28;20293;-64
2021/05/19 06:21:48;;;;;;;;;;;;;;;;;;5053616;28;19996;-65
2021/05/19 06:24:13;;;;;;;;;;;;;;;;;;5053720;28;20007;-65
2021/05/19 06:26:38;;;;;;;;;;;;;;;;;;5053478;28;20023;-64
2021/05/19 06:29:10;;;;;;;;;;;;;;;;;;5053689;28;19951;-64
2021/05/19 06:31:35;;;;;;;;;;;;;;;;;;5053418;28;19916;-64
2021/05/19 06:34:00;;;;;;;;;;;;;;;;;;5053510;28;19911;-64
2021/05/19 06:36:32;;;;;;;;;;;;;;;;;;5053466;28;20273;-64
2021/05/19 06:38:57;;;;;;;;;;;;;;;;;;5053560;28;19955;-64
2021/05/19 06:41:22;;;;;;;;;;;;;;;;;;5053289;28;19990;-64
2021/05/19 06:43:54;;;;;;;;;;;;;;;;;;5052450;28;19920;-64
2021/05/19 06:46:19;;;;;;;;;;;;;;;;;;5053233;28;20319;-65
2021/05/19 06:48:44;;;;;;;;;;;;;;;;;;5053108;28;19905;-65
2021/05/19 06:51:16;;;;;;;;;;;;;;;;;;5053078;28;19999;-65
2021/05/19 06:53:41;;;;;;;;;;;;;;;;;;5053339;28;20375;-65
2021/05/19 06:56:07;;;;;;;;;;;;;;;;;;5053209;28;19955;-65
2021/05/19 06:58:39;;;;;;;;;;;;;;;;;;5053336;28;19952;-65
2021/05/19 07:01:04;;;;;;;;;;;;;;;;;;5053204;28;19920;-65
2021/05/19 07:03:31;;;;;;;;;;;;;;;;;;5053223;28;19905;-65
2021/05/19 07:06:03;;;;;;;;;;;;;;;;;;5052807;28;19904;-65
2021/05/19 07:08:28;;;;;;;;;;;;;;;;;;5053233;28;19909;-65
2021/05/19 07:10:53;;;;;;;;;;;;;;;;;;5052986;28;19909;-65
2021/05/19 07:13:28;;;;;;;;;;;;;;;;;;5053119;28;19909;-65
2021/05/19 07:15:53;;;;;;;;;;;;;;;;;;5052500;28;19909;-66
2021/05/19 07:18:18;;;;;;;;;;;;;;;;;;5053114;28;19904;-65
2021/05/19 07:20:51;;;;;;;;;;;;;;;;;;5052666;28;20341;-65
2021/05/19 07:23:16;;;;;;;;;;;;;;;;;;5052847;28;19915;-65
2021/05/19 07:25:41;;;;;;;;;;;;;;;;;;5046398;28;19909;-65
2021/05/19 07:28:13;;;;;;;;;;;;;;;;;;5055701;28;19909;-65
2021/05/19 07:30:38;;;;;;;;;;;;;;;;;;5056214;28;19909;-65
2021/05/19 07:33:03;;;;;;;;;;;;;;;;;;5054273;28;20023;-65
2021/05/19 07:35:35;;;;;;;;;;;;;;;;;;5056204;28;20350;-65
2021/05/19 07:38:00;;;;;;;;;;;;;;;;;;5053935;28;20367;-65
2021/05/19 07:40:27;;;;;;;;;;;;;;;;;;5055243;28;20003;-66
2021/05/19 07:42:59;;;;;;;;;;;;;;;;;;5054688;28;20328;-65
2021/05/19 07:45:24;;;;;;;;;;;;;;;;;;5055695;28;20385;-65
2021/05/19 07:47:49;;;;;;;;;;;;;;;;;;5054446;28;19950;-66
2021/05/19 07:50:21;;;;;;;;;;;;;;;;;;5055659;28;19904;-65
2021/05/19 07:52:46;;;;;;;;;;;;;;;;;;5056090;28;19920;-65
2021/05/19 07:55:43;;;;;;;;;;;;;;;;;;5055983;28;19905;-66
2021/05/19 07:58:08;;;;;;;;;;;;;;;;;;5055578;28;19905;-65
2021/05/19 08:03:01;;;;;;;;;;;;;;;;;;5052336;28;20380;-65
2021/05/19 08:05:33;;;;;;;;;;;;;;;;;;5053603;28;19952;-65
2021/05/19 08:07:58;;;;;;;;;;;;;;;;;;5053831;28;19909;-65
2021/05/19 08:10:23;;;;;;;;;;;;;;;;;;5052453;28;20055;-65
2021/05/19 08:12:55;;;;;;;;;;;;;;;;;;5052854;28;19913;-65
2021/05/19 08:15:20;;;;;;;;;;;;;;;;;;5052949;28;19909;-65
2021/05/19 08:17:45;;;;;;;;;;;;;;;;;;5052325;28;20249;-65
2021/05/19 08:20:20;;;;;;;;;;;;;;;;;;5052649;28;19905;-65
2021/05/19 08:22:45;;;;;;;;;;;;;;;;;;5052690;28;19909;-67
2021/05/19 08:25:11;;;;;;;;;;;;;;;;;;5053075;28;19901;-67
2021/05/19 08:27:43;;;;;;;;;;;;;;;;;;5053236;28;19901;-67
2021/05/19 08:30:10;;;;;;;;;;;;;;;;;;5047673;28;20360;-67
2021/05/19 08:32:36;;;;;;;;;;;;;;;;;;5047890;28;19965;-67
2021/05/19 08:35:08;;;;;;;;;;;;;;;;;;5046974;28;19985;-67
2021/05/19 08:37:33;;;;;;;;;;;;;;;;;;5047121;28;20436;-67
2021/05/19 08:39:58;;;;;;;;;;;;;;;;;;5048152;28;20027;-67
2021/05/19 08:42:30;;;;;;;;;;;;;;;;;;5045916;28;19966;-67
2021/05/19 08:44:55;;;;;;;;;;;;;;;;;;5047159;28;20012;-65
2021/05/19 08:47:20;;;;;;;;;;;;;;;;;;5047629;28;20018;-65
2021/05/19 08:49:52;;;;;;;;;;;;;;;;;;5048408;28;19916;-65
2021/05/19 08:52:17;;;;;;;;;;;;;;;;;;5048039;28;19932;-65
2021/05/19 08:54:42;;;;;;;;;;;;;;;;;;5047425;28;20335;-65
2021/05/19 08:57:14;;;;;;;;;;;;;;;;;;5047623;28;19912;-65
2021/05/19 08:59:39;;;;;;;;;;;;;;;;;;5047494;28;19919;-65
2021/05/19 09:02:04;;;;;;;;;;;;;;;;;;5047637;28;19909;-65
2021/05/19 09:04:36;;;;;;;;;;;;;;;;;;5047194;28;19908;-65
2021/05/19 09:07:02;;;;;;;;;;;;;;;;;;5046997;28;19912;-65
2021/05/19 09:09:27;;;;;;;;;;;;;;;;;;5039500;28;19913;-65
2021/05/19 09:11:59;;;;;;;;;;;;;;;;;;5026921;28;19944;-65
2021/05/19 09:14:24;;;;;;;;;;;;;;;;;;5026697;28;19913;-65
2021/05/19 09:16:49;;;;;;;;;;;;;;;;;;5027279;28;20392;-65
2021/05/19 09:19:21;;;;;;;;;;;;;;;;;;5027413;28;20004;-65
2021/05/19 09:21:46;;;;;;;;;;;;;;;;;;5026742;28;20462;-65
2021/05/19 09:24:12;;;;;;;;;;;;;;;;;;5027109;28;19999;-65
2021/05/19 09:26:44;;;;;;;;;;;;;;;;;;5027178;28;19918;-65
2021/05/19 09:29:09;;;;;;;;;;;;;;;;;;5027479;28;20004;-65
2021/05/19 09:31:34;;;;;;;;;;;;;;;;;;5027008;28;20456;-67
2021/05/19 09:34:06;;;;;;;;;;;;;;;;;;5027025;28;19909;-67
2021/05/19 09:36:31;;;;;;;;;;;;;;;;;;5025543;28;19912;-67
2021/05/19 09:38:56;;;;;;;;;;;;;;;;;;5026588;28;19991;-67
2021/05/19 09:41:28;;;;;;;;;;;;;;;;;;5037314;28;19915;-67
2021/05/19 09:43:55;;;;;;;;;;;;;;;;;;5045065;28;19920;-65
2021/05/19 09:48:53;;;;;;;;;;;;;;;;;;5045687;28;19908;-64
2021/05/19 09:51:18;;;;;;;;;;;;;;;;;;5046115;28;20650;-67
2021/05/19 09:53:43;;;;;;;;;;;;;;;;;;5046748;28;19909;-67
2021/05/19 09:56:15;;;;;;;;;;;;;;;;;;5046704;28;20442;-67
2021/05/19 09:58:40;;;;;;;;;;;;;;;;;;5046011;28;19916;-65
2021/05/19 10:01:06;;;;;;;;;;;;;;;;;;5049457;28;19935;-65
2021/05/19 10:03:38;;;;;;;;;;;;;;;;;;5051015;28;19911;-65
2021/05/19 10:06:24;;;;;;;;;;;;;;;;;;5042326;28;19909;-65
2021/05/19 10:08:56;;;;;;;;;;;;;;;;;;5050375;28;19955;-66
2021/05/19 10:11:21;;;;;;;;;;;;;;;;;;5049959;28;20331;-65
2021/05/19 10:13:46;;;;;;;;;;;;;;;;;;5048948;28;19911;-65
2021/05/19 10:16:18;;;;;;;;;;;;;;;;;;5049437;28;19911;-65
2021/05/19 10:18:43;;;;;;;;;;;;;;;;;;5048555;28;19913;-65
2021/05/19 10:21:09;;;;;;;;;;;;;;;;;;5047793;28;19905;-67
2021/05/19 10:23:41;;;;;;;;;;;;;;;;;;5044748;28;19996;-67
2021/05/19 10:26:06;;;;;;;;;;;;;;;;;;5041780;28;20369;-66
2021/05/19 10:28:32;;;;;;;;;;;;;;;;;;5045598;28;19955;-67
2021/05/19 10:31:04;;;;;;;;;;;;;;;;;;5054978;28;19917;-67
2021/05/19 10:33:29;;;;;;;;;;;;;;;;;;5054012;28;19912;-66
2021/05/19 10:35:54;;;;;;;;;;;;;;;;;;5048678;28;19942;-67
2021/05/19 10:38:28;;;;;;;;;;;;;;;;;;5061974;28;19909;-66
2021/05/19 10:40:53;;;;;;;;;;;;;;;;;;5048355;28;20203;-67
2021/05/19 10:43:19;;;;;;;;;;;;;;;;;;5056148;28;19927;-67
2021/05/19 10:45:51;;;;;;;;;;;;;;;;;;5055225;28;20409;-67
2021/05/19 10:48:16;;;;;;;;;;;;;;;;;;5034510;28;20364;-67
2021/05/19 10:50:42;;;;;;;;;;;;;;;;;;5058697;28;19908;-66
2021/05/19 11:01:14;;;;;;;;;;;;;;;;;;5061077;28;19989;-66
2021/05/19 11:03:39;;;;;;;;;;;;;;;;;;5055287;28;19959;-67
2021/05/19 11:06:11;;;;;;;;;;;;;;;;;;5065715;28;20295;-66
2021/05/19 11:08:36;;;;;;;;;;;;;;;;;;5056148;28;20348;-66
2021/05/19 11:11:03;;;;;;;;;;;;;;;;;;5059555;28;19991;-66
2021/05/19 11:13:36;;;;;;;;;;;;;;;;;;5064124;28;19912;-67
2021/05/19 11:16:11;;;;;;;;;;;;;;;;;;5053317;28;19912;-66
2021/05/19 11:21:08;;;;;;;;;;;;;;;;;;5050696;28;19927;-67
2021/05/19 11:23:33;;;;;;;;;;;;;;;;;;5053521;28;19988;-67
2021/05/19 11:26:05;;;;;;;;;;;;;;;;;;5052872;28;20415;-67
2021/05/19 11:28:30;;;;;;;;;;;;;;;;;;5051966;28;19959;-67
2021/05/19 11:30:55;;;;;;;;;;;;;;;;;;5052567;28;19940;-67
2021/05/19 11:33:27;;;;;;;;;;;;;;;;;;5051363;28;19915;-67
2021/05/19 11:35:52;;;;;;;;;;;;;;;;;;5052088;28;19947;-67
2021/05/19 11:38:18;;;;;;;;;;;;;;;;;;5051471;28;19967;-67
2021/05/19 11:40:50;;;;;;;;;;;;;;;;;;5051927;28;20407;-67
2021/05/19 11:43:15;;;;;;;;;;;;;;;;;;5050876;28;20394;-67
2021/05/19 11:45:41;;;;;;;;;;;;;;;;;;5052294;28;19952;-67
2021/05/19 11:48:13;;;;;;;;;;;;;;;;;;5051365;28;19908;-67
2021/05/19 11:50:38;;;;;;;;;;;;;;;;;;5045231;28;20372;-67
2021/05/19 11:53:05;;;;;;;;;;;;;;;;;;5049334;28;20027;-67
2021/05/19 11:55:37;;;;;;;;;;;;;;;;;;5043096;28;19955;-67
2021/05/19 11:58:02;;;;;;;;;;;;;;;;;;5043007;28;19913;-67
2021/05/19 12:00:27;;;;;;;;;;;;;;;;;;5048890;28;19909;-66
2021/05/19 12:02:59;;;;;;;;;;;;;;;;;;5061330;28;19977;-67
2021/05/19 12:05:24;;;;;;;;;;;;;;;;;;5051389;28;19912;-67
2021/05/19 12:07:49;;;;;;;;;;;;;;;;;;5053503;28;20376;-67
2021/05/19 12:10:21;;;;;;;;;;;;;;;;;;5053134;28;19912;-66
2021/05/19 12:12:48;;;;;;;;;;;;;;;;;;5046610;28;19920;-66
2021/05/19 12:15:13;;;;;;;;;;;;;;;;;;5056423;28;20288;-67
2021/05/19 12:17:45;;;;;;;;;;;;;;;;;;5056214;28;19909;-66
2021/05/19 12:20:10;;;;;;;;;;;;;;;;;;5049190;28;19955;-66
2021/05/19 12:22:35;;;;;;;;;;;;;;;;;;5050250;28;19944;-66
2021/05/19 12:25:07;;;;;;;;;;;;;;;;;;5051612;28;20296;-67
2021/05/19 12:27:32;;;;;;;;;;;;;;;;;;5050875;28;20011;-66
2021/05/19 12:29:57;;;;;;;;;;;;;;;;;;5050123;28;20317;-66
2021/05/19 12:32:29;;;;;;;;;;;;;;;;;;5051171;28;19924;-66
2021/05/19 12:34:54;;;;;;;;;;;;;;;;;;5050969;28;20381;-67
2021/05/19 12:37:19;;;;;;;;;;;;;;;;;;5050622;28;19935;-66
2021/05/19 12:39:51;;;;;;;;;;;;;;;;;;5040896;28;19935;-67
2021/05/19 12:42:16;;;;;;;;;;;;;;;;;;5047795;28;20378;-66
2021/05/19 12:44:41;;;;;;;;;;;;;;;;;;5049329;28;19984;-66
2021/05/19 12:47:13;;;;;;;;;;;;;;;;;;5059655;28;20716;-66
2021/05/19 12:49:38;;;;;;;;;;;;;;;;;;5058147;28;19920;-67
2021/05/19 12:52:03;;;;;;;;;;;;;;;;;;5047026;28;20412;-67
2021/05/19 12:54:37;;;;;;;;;;;;;;;;;;5048051;28;19916;-67
2021/05/19 12:57:02;;;;;;;;;;;;;;;;;;5037025;28;20376;-66
2021/05/19 12:59:27;;;;;;;;;;;;;;;;;;5045612;28;19919;-66
2021/05/19 13:01:59;;;;;;;;;;;;;;;;;;5050016;28;19909;-66
2021/05/19 13:04:24;;;;;;;;;;;;;;;;;;5045043;28;20035;-67
2021/05/19 13:06:49;;;;;;;;;;;;;;;;;;5060129;28;20423;-67
2021/05/19 13:09:28;;;;;;;;;;;;;;;;;;5049683;28;19920;-66
2021/05/19 13:12:03;;;;;;;;;;;;;;;;;;5050087;28;20384;-67
2021/05/19 13:14:36;;;;;;;;;;;;;;;;;;5052742;28;20352;-67
2021/05/19 13:17:06;;;;;;;;;;;;;;;;;;5046091;28;19962;-66
2021/05/19 13:19:32;;;;;;;;;;;;;;;;;;5043971;28;19908;-67
2021/05/19 13:22:04;;;;;;;;;;;;;;;;;;5057968;28;19912;-66
2021/05/19 13:24:29;;;;;;;;;;;;;;;;;;5055645;28;19912;-67
2021/05/19 13:26:54;;;;;;;;;;;;;;;;;;5051067;28;19937;-67
2021/05/19 13:29:26;;;;;;;;;;;;;;;;;;5050502;28;19900;-67
2021/05/19 13:32:13;;;;;;;;;;;;;;;;;;5047077;28;20326;-67
2021/05/19 13:36:12;;;;;;;;;;;;;;;;;;5048828;28;20393;-67
2021/05/19 13:37:33;;;;;;;;;;;;;;;;;;5039194;28;19908;-67
2021/05/19 13:40:05;;;;;;;;;;;;;;;;;;5049112;28;19908;-67
2021/05/19 13:42:30;;;;;;;;;;;;;;;;;;5047510;28;19908;-67
2021/05/19 13:44:55;;;;;;;;;;;;;;;;;;5047894;28;20011;-67
2021/05/19 13:47:27;;;;;;;;;;;;;;;;;;5049218;28;19915;-67
2021/05/19 13:49:52;;;;;;;;;;;;;;;;;;5049675;28;19904;-67
2021/05/19 13:52:17;;;;;;;;;;;;;;;;;;5038534;28;19925;-67
2021/05/19 13:54:49;;;;;;;;;;;;;;;;;;5047096;28;19997;-67
2021/05/19 13:57:14;;;;;;;;;;;;;;;;;;5046250;28;19920;-67
2021/05/19 13:59:40;;;;;;;;;;;;;;;;;;5047896;28;19912;-67
2021/05/19 14:02:12;;;;;;;;;;;;;;;;;;5061705;28;19915;-67
2021/05/19 14:04:37;;;;;;;;;;;;;;;;;;5049747;28;19960;-67
2021/05/19 14:07:02;;;;;;;;;;;;;;;;;;5045456;28;20428;-67
2021/05/19 14:09:35;;;;;;;;;;;;;;;;;;5058171;28;19952;-67
2021/05/19 14:12:23;;;;;;;;;;;;;;;;;;5033260;28;19921;-67
2021/05/19 14:17:57;;;;;;;;;;;;;;;;;;5061797;28;19919;-67
2021/05/19 14:28:27;;;;;;;;;;;;;;;;;;5052990;28;20391;-66
2021/05/19 14:31:00;;;;;;;;;;;;;;;;;;5056080;28;19908;-66
2021/05/19 14:33:26;;;;;;;;;;;;;;;;;;5061222;28;19963;-66
2021/05/19 15:00:50;;;;;;;;;;;;;;;;;;5056538;28;20308;-66
2021/05/19 15:03:15;;;;;;;;;;;;;;;;;;5059883;28;20392;-66
2021/05/19 15:05:42;;;;;;;;;;;;;;;;;;5049711;28;19904;-67
2021/05/19 15:08:14;;;;;;;;;;;;;;;;;;5061848;28;19927;-66
2021/05/19 15:10:41;;;;;;;;;;;;;;;;;;5052328;28;19912;-67
2021/05/19 15:13:06;;;;;;;;;;;;;;;;;;5045324;28;19921;-66
2021/05/19 15:15:38;;;;;;;;;;;;;;;;;;5048305;28;20269;-66
2021/05/19 15:18:03;;;;;;;;;;;;;;;;;;5063232;28;19912;-67
2021/05/19 15:20:28;;;;;;;;;;;;;;;;;;5053547;28;19908;-67
2021/05/19 15:23:00;;;;;;;;;;;;;;;;;;5054913;28;19909;-67
2021/05/19 15:25:25;;;;;;;;;;;;;;;;;;5061805;28;19938;-66
2021/05/19 15:27:50;;;;;;;;;;;;;;;;;;5049586;28;19995;-66
2021/05/19 15:30:22;;;;;;;;;;;;;;;;;;5060421;28;19909;-67
2021/05/19 15:32:47;;;;;;;;;;;;;;;;;;5055925;28;20136;-66
2021/05/19 15:35:13;;;;;;;;;;;;;;;;;;5053244;28;19909;-67
2021/05/19 15:37:45;;;;;;;;;;;;;;;;;;5051229;28;19915;-66
2021/05/19 15:40:10;;;;;;;;;;;;;;;;;;5049655;28;20388;-66
2021/05/19 15:42:36;;;;;;;;;;;;;;;;;;5049631;28;19982;-67
2021/05/19 15:45:08;;;;;;;;;;;;;;;;;;5048791;28;19943;-66
2021/05/19 15:47:33;;;;;;;;;;;;;;;;;;5051861;28;19908;-66
2021/05/19 15:49:58;;;;;;;;;;;;;;;;;;5054048;28;19927;-66
2021/05/19 15:52:30;;;;;;;;;;;;;;;;;;5051810;28;19912;-67
2021/05/19 15:54:55;;;;;;;;;;;;;;;;;;5052254;28;19912;-67
2021/05/19 15:57:20;;;;;;;;;;;;;;;;;;5051984;28;19915;-66
2021/05/19 15:59:52;;;;;;;;;;;;;;;;;;5037995;28;20436;-66
2021/05/19 16:02:18;;;;;;;;;;;;;;;;;;5047682;28;19916;-67
2021/05/19 16:04:44;;;;;;;;;;;;;;;;;;5048064;28;19916;-66
2021/05/19 16:07:16;;;;;;;;;;;;;;;;;;5046386;28;19923;-67
2021/05/19 16:09:41;;;;;;;;;;;;;;;;;;5048243;28;19916;-66
2021/05/19 16:12:06;;;;;;;;;;;;;;;;;;5052300;28;19927;-66
2021/05/19 16:14:38;;;;;;;;;;;;;;;;;;5061859;28;19912;-66
2021/05/19 16:17:03;;;;;;;;;;;;;;;;;;5060325;28;19912;-66
2021/05/19 16:19:28;;;;;;;;;;;;;;;;;;5049312;28;20308;-66
2021/05/19 16:22:01;;;;;;;;;;;;;;;;;;5064429;28;19915;-66
2021/05/19 16:24:26;;;;;;;;;;;;;;;;;;5055420;28;19943;-66
2021/05/19 16:26:52;;;;;;;;;;;;;;;;;;5058923;28;19908;-66
2021/05/19 16:29:57;;;;;;;;;;;;;;;;;;5054370;28;19916;-66
2021/05/19 16:32:09;;;;;;;;;;;;;;;;;;5038380;28;20615;-66
2021/05/19 16:34:42;;;;;;;;;;;;;;;;;;5064458;28;19912;-66
2021/05/19 16:37:10;;;;;;;;;;;;;;;;;;5056378;28;19978;-66
2021/05/19 16:39:35;;;;;;;;;;;;;;;;;;5064577;28;19908;-66
2021/05/19 16:42:07;;;;;;;;;;;;;;;;;;5051574;28;19909;-66
2021/05/19 16:44:32;;;;;;;;;;;;;;;;;;5059043;28;19959;-66
2021/05/19 16:46:57;;;;;;;;;;;;;;;;;;5058826;28;19951;-66
2021/05/19 16:49:29;;;;;;;;;;;;;;;;;;5053375;28;19912;-66
2021/05/19 16:51:55;;;;;;;;;;;;;;;;;;5064829;28;19920;-66
2021/05/19 16:54:21;;;;;;;;;;;;;;;;;;5046368;28;19912;-66
2021/05/19 16:56:53;;;;;;;;;;;;;;;;;;5048545;28;20343;-66
2021/05/19 16:59:20;;;;;;;;;;;;;;;;;;5046652;28;19920;-66
2021/05/19 17:07:00;;;;;;;;;;;;;;;;;;5043936;28;19920;-66
2021/05/19 17:09:32;;;;;;;;;;;;;;;;;;5050845;28;19909;-66
2021/05/19 17:11:58;;;;;;;;;;;;;;;;;;5051765;28;20061;-66
2021/05/19 17:14:23;;;;;;;;;;;;;;;;;;5051596;28;19995;-66
2021/05/19 17:16:55;;;;;;;;;;;;;;;;;;5057647;28;19919;-66
2021/05/19 17:19:20;;;;;;;;;;;;;;;;;;5053926;28;20258;-66
2021/05/19 17:21:45;;;;;;;;;;;;;;;;;;5058592;28;19912;-66
2021/05/19 17:24:17;;;;;;;;;;;;;;;;;;5048393;28;19912;-66
2021/05/19 17:26:42;;;;;;;;;;;;;;;;;;5048453;28;19916;-66
2021/05/19 17:29:07;;;;;;;;;;;;;;;;;;5048495;28;19912;-66
2021/05/19 17:31:39;;;;;;;;;;;;;;;;;;5051009;28;19912;-66
2021/05/19 17:34:04;;;;;;;;;;;;;;;;;;5049853;28;19990;-66
2021/05/19 17:36:30;;;;;;;;;;;;;;;;;;5051025;28;19955;-66
2021/05/19 17:39:02;;;;;;;;;;;;;;;;;;5050349;28;19905;-66
2021/05/19 17:41:27;;;;;;;;;;;;;;;;;;5050536;28;19917;-66
2021/05/19 17:43:52;;;;;;;;;;;;;;;;;;5049219;28;19920;-66
2021/05/19 17:46:25;;;;;;;;;;;;;;;;;;5048959;28;19905;-66